createdAt,value
2022-09-28T03:17:16.707Z,99.90
2022-09-28T03:19:45.686Z,99.90
2022-09-28T03:22:13.968Z,99.90
2022-09-28T03:24:42.133Z,99.90
2022-09-28T03:27:10.779Z,99.90
2022-09-28T03:29:39.392Z,99.90
2022-09-28T03:32:08.792Z,99.90
2022-09-28T03:34:38.857Z,99.90
2022-09-28T03:37:07.169Z,99.90
2022-09-28T03:39:35.440Z,99.90
2022-09-28T03:42:04.862Z,99.90
2022-09-28T03:44:41.105Z,99.90
2022-09-28T03:47:10.008Z,99.90
2022-09-28T03:49:39.844Z,99.90
2022-09-28T03:52:15.139Z,99.90
2022-09-28T03:54:48.349Z,99.90
2022-09-28T03:57:17.667Z,99.90
2022-09-28T03:59:46.327Z,99.90
2022-09-28T04:02:17.017Z,99.90
2022-09-28T04:04:46.877Z,99.90
2022-09-28T04:07:16.109Z,99.90
2022-09-28T04:09:46.747Z,99.90
2022-09-28T04:12:17.289Z,99.90
2022-09-28T04:14:45.636Z,99.90
2022-09-28T04:17:13.799Z,99.90
2022-09-28T04:19:44.474Z,99.90
2022-09-28T04:22:33.069Z,99.90
2022-09-28T04:25:01.237Z,99.90
2022-09-28T04:27:47.254Z,99.90
2022-09-28T04:30:15.732Z,99.90
2022-09-28T04:32:47.483Z,99.90
2022-09-28T04:35:16.288Z,99.90
2022-09-28T04:37:45.843Z,99.90
2022-09-28T04:40:14.026Z,99.90
2022-09-28T04:42:42.113Z,99.90
2022-09-28T04:45:11.458Z,99.90
2022-09-28T04:47:44.635Z,99.90
2022-09-28T04:50:41.763Z,99.90
2022-09-28T04:53:23.354Z,99.90
2022-09-28T04:55:59.514Z,99.90
2022-09-28T04:58:28.233Z,99.90
2022-09-28T05:01:00.373Z,99.90
2022-09-28T05:03:51.945Z,99.90
2022-09-28T05:06:32.866Z,99.90
2022-09-28T05:09:07.350Z,99.90
2022-09-28T05:11:35.678Z,99.90
2022-09-28T05:14:05.880Z,99.90
2022-09-28T05:16:34.305Z,99.90
2022-09-28T05:19:21.300Z,99.90
2022-09-28T05:21:50.675Z,99.90
2022-09-28T05:24:20.201Z,99.90
2022-09-28T05:26:52.167Z,99.90
2022-09-28T05:29:21.002Z,99.90
2022-09-28T05:32:07.709Z,99.90
2022-09-28T05:34:50.706Z,99.90
2022-09-28T05:37:25.500Z,99.90
2022-09-28T05:39:55.099Z,99.90
2022-09-28T05:42:23.317Z,99.90
2022-09-28T05:44:54.360Z,99.90
2022-09-28T05:47:23.159Z,99.90
2022-09-28T05:49:51.527Z,99.90
2022-09-28T05:52:20.271Z,99.90
2022-09-28T05:54:48.903Z,99.90
2022-09-28T05:57:18.449Z,99.90
2022-09-28T05:59:46.547Z,99.90
2022-09-28T06:02:14.856Z,99.90
2022-09-28T06:04:45.224Z,99.90
2022-09-28T06:07:13.522Z,99.90
2022-09-28T06:09:42.231Z,99.90
2022-09-28T06:12:21.445Z,99.90
2022-09-28T06:14:52.084Z,99.90
2022-09-28T06:17:20.743Z,99.90
2022-09-28T06:19:58.624Z,99.90
2022-09-28T06:22:30.144Z,99.90
2022-09-28T06:25:08.533Z,99.90
2022-09-28T06:27:39.326Z,99.90
2022-09-28T06:30:08.932Z,99.90
2022-09-28T06:32:37.142Z,99.90
2022-09-28T06:35:08.833Z,99.90
2022-09-28T06:37:37.241Z,99.90
2022-09-28T06:40:07.357Z,99.90
2022-09-28T06:42:37.967Z,99.90
2022-09-28T06:45:30.591Z,99.90
2022-09-28T06:48:21.361Z,99.90
2022-09-28T06:50:51.853Z,99.90
2022-09-28T06:53:49.033Z,99.90
2022-09-28T06:56:33.921Z,99.90
2022-09-28T06:59:03.453Z,99.90
2022-09-28T07:01:31.726Z,99.90
2022-09-28T07:04:08.476Z,99.90
2022-09-28T07:07:02.829Z,99.90
2022-09-28T07:09:56.342Z,99.90
2022-09-28T07:12:42.063Z,99.90
2022-09-28T07:15:27.374Z,99.90
2022-09-28T07:18:02.485Z,99.90
2022-09-28T07:20:35.898Z,99.90
2022-09-28T07:23:18.466Z,99.90
2022-09-28T07:26:09.233Z,99.90
2022-09-28T07:29:13.349Z,99.90
2022-09-28T07:32:02.909Z,99.90
2022-09-28T07:34:44.672Z,99.90
2022-09-28T07:37:32.690Z,99.90
2022-09-28T07:40:18.133Z,99.90
2022-09-28T07:42:46.345Z,99.90
2022-09-28T07:45:14.749Z,99.90
2022-09-28T07:47:44.307Z,99.90
2022-09-28T07:50:21.057Z,99.90
2022-09-28T07:53:03.191Z,99.90
2022-09-28T07:55:55.636Z,99.90
2022-09-28T07:58:39.810Z,99.90
2022-09-28T08:01:25.969Z,99.90
2022-09-28T08:03:56.720Z,99.90
2022-09-28T08:06:25.371Z,99.90
2022-09-28T08:08:56.391Z,99.90
2022-09-28T08:11:32.860Z,99.90
2022-09-28T08:14:11.127Z,99.90
2022-09-28T08:17:02.980Z,99.90
2022-09-28T08:20:11.381Z,99.90
2022-09-28T08:22:39.982Z,99.90
2022-09-28T08:25:09.117Z,99.90
2022-09-28T08:27:37.940Z,99.90
2022-09-28T08:30:08.104Z,99.90
2022-09-28T08:32:55.084Z,99.90
2022-09-28T08:35:43.654Z,99.90
2022-09-28T08:38:18.471Z,99.90
2022-09-28T08:41:08.009Z,99.90
2022-09-28T08:44:12.138Z,99.90
2022-09-28T08:47:02.361Z,99.90
2022-09-28T08:50:03.190Z,99.90
2022-09-28T08:52:41.514Z,99.90
2022-09-28T08:55:23.123Z,99.90
2022-09-28T08:57:56.959Z,99.90
2022-09-28T09:00:34.535Z,99.90
2022-09-28T09:03:06.760Z,99.90
2022-09-28T09:05:50.865Z,99.90
2022-09-28T09:08:53.480Z,99.90
2022-09-28T09:11:38.490Z,99.90
2022-09-28T09:14:31.102Z,99.90
2022-09-28T09:17:05.317Z,99.90
2022-09-28T09:20:06.012Z,99.90
2022-09-28T09:22:59.078Z,99.90
2022-09-28T09:25:43.801Z,99.90
2022-09-28T09:28:32.774Z,99.90
2022-09-28T09:31:20.729Z,99.90
2022-09-28T09:34:26.188Z,99.90
2022-09-28T09:37:34.595Z,99.90
2022-09-28T09:40:35.217Z,99.90
2022-09-28T09:43:45.712Z,51.50
2022-09-28T09:46:38.273Z,99.90
2022-09-28T09:49:23.205Z,33.80
2022-09-28T09:51:58.087Z,12.70
2022-09-28T09:54:31.486Z,1.00
2022-09-28T09:57:07.808Z,1.00
2022-09-28T09:59:48.660Z,1.00
2022-09-28T10:02:29.640Z,1.00
2022-09-28T10:05:22.978Z,1.00
2022-09-28T10:07:56.520Z,1.00
2022-09-28T10:10:29.724Z,1.00
2022-09-28T10:13:14.096Z,1.00
2022-09-28T10:15:45.406Z,1.00
2022-09-28T10:18:23.375Z,99.90
2022-09-28T10:21:16.276Z,99.90
2022-09-28T10:24:17.735Z,98.00
2022-09-28T10:26:49.244Z,99.90
2022-09-28T10:29:22.614Z,1.00
2022-09-28T10:31:52.058Z,99.90
2022-09-28T10:34:31.258Z,25.40
2022-09-28T10:37:14.238Z,1.00
2022-09-28T10:40:30.366Z,1.00
2022-09-28T10:43:04.328Z,1.00
2022-09-28T10:45:37.807Z,1.00
2022-09-28T10:48:14.999Z,99.90
2022-09-28T10:50:44.391Z,84.20
2022-09-28T10:53:20.626Z,17.90
2022-09-28T10:56:22.200Z,99.90
2022-09-28T10:59:00.230Z,99.90
2022-09-28T11:01:44.693Z,99.90
2022-09-28T11:04:22.002Z,1.00
2022-09-28T11:06:52.024Z,99.90
2022-09-28T11:09:30.582Z,99.90
2022-09-28T11:12:06.101Z,1.00
2022-09-28T11:14:42.092Z,90.40
2022-09-28T11:17:26.282Z,1.00
2022-09-28T11:19:54.705Z,99.90
2022-09-28T11:22:29.185Z,99.90
2022-09-28T11:25:22.437Z,1.00
2022-09-28T11:27:59.854Z,99.90
2022-09-28T11:30:31.205Z,1.00
2022-09-28T11:33:41.493Z,99.90
2022-09-28T11:36:45.926Z,1.00
2022-09-28T11:39:24.804Z,1.00
2022-09-28T11:42:16.070Z,99.90
2022-09-28T11:44:51.488Z,99.90
2022-09-28T11:47:48.339Z,1.00
2022-09-28T11:50:29.319Z,99.90
2022-09-28T11:53:12.874Z,1.00
2022-09-28T11:55:45.168Z,56.20
2022-09-28T11:58:18.419Z,1.00
2022-09-28T12:00:50.771Z,1.00
2022-09-28T12:03:26.281Z,1.00
2022-09-28T12:06:00.995Z,99.90
2022-09-28T12:08:37.549Z,1.00
2022-09-28T12:11:11.827Z,1.00
2022-09-28T12:14:22.674Z,1.00
2022-09-28T12:17:11.507Z,1.00
2022-09-28T12:19:48.352Z,68.70
2022-09-28T12:22:23.290Z,1.00
2022-09-28T12:24:53.700Z,1.00
2022-09-28T12:27:26.069Z,1.00
2022-09-28T12:30:03.043Z,1.00
2022-09-28T12:32:37.541Z,99.90
2022-09-28T12:35:13.088Z,99.90
2022-09-28T12:38:03.013Z,99.90
2022-09-28T12:40:41.295Z,99.90
2022-09-28T12:43:33.628Z,99.90
2022-09-28T12:46:31.825Z,99.90
2022-09-28T12:52:23.671Z,99.90
2022-09-28T12:55:12.545Z,99.90
2022-09-28T12:57:49.955Z,99.90
2022-09-28T13:00:22.781Z,99.90
2022-09-28T13:03:35.093Z,99.90
2022-09-28T13:06:29.468Z,99.90
2022-09-28T13:09:24.647Z,99.90
2022-09-28T13:12:11.846Z,99.90
2022-09-28T13:15:13.874Z,99.90
2022-09-28T13:17:51.810Z,99.90
2022-09-28T13:20:31.270Z,99.90
2022-09-28T13:23:12.608Z,99.90
2022-09-28T13:25:45.281Z,99.90
2022-09-28T13:28:17.575Z,99.90
2022-09-28T13:30:46.970Z,99.90
2022-09-28T13:33:21.605Z,99.90
2022-09-28T13:35:49.850Z,99.90
2022-09-28T13:38:47.211Z,99.90
2022-09-28T13:41:19.293Z,99.90
2022-09-28T13:44:09.659Z,99.90
2022-09-28T13:46:44.310Z,99.90
2022-09-28T13:49:20.054Z,99.90
2022-09-28T13:52:03.845Z,99.90
2022-09-28T13:54:51.412Z,99.90
2022-09-28T13:57:26.064Z,99.90
2022-09-28T14:00:03.079Z,99.90
2022-09-28T14:02:45.206Z,99.90
2022-09-28T14:05:42.451Z,1.00
2022-09-28T14:08:29.812Z,1.00
2022-09-28T14:11:00.415Z,1.00
2022-09-28T14:14:04.321Z,1.00
2022-09-28T14:16:35.118Z,1.00
2022-09-28T14:19:08.499Z,1.00
2022-09-28T14:21:53.670Z,1.00
2022-09-28T14:24:35.558Z,1.00
2022-09-28T14:27:33.576Z,1.00
2022-09-28T14:30:19.719Z,1.00
2022-09-28T14:32:56.032Z,99.90
2022-09-28T14:35:32.776Z,1.00
2022-09-28T14:38:23.820Z,99.90
2022-09-28T14:41:10.920Z,99.90
2022-09-28T14:43:59.584Z,99.90
2022-09-28T14:46:35.532Z,99.90
2022-09-28T14:49:26.905Z,99.90
2022-09-28T14:52:04.768Z,99.90
2022-09-28T14:55:00.269Z,99.90
2022-09-28T14:57:32.340Z,1.00
2022-09-28T15:00:01.408Z,1.00
2022-09-28T15:02:33.419Z,1.00
2022-09-28T15:05:17.506Z,99.90
2022-09-28T15:07:49.568Z,1.00
2022-09-28T15:10:28.349Z,99.90
2022-09-28T15:12:57.692Z,99.90
2022-09-28T15:15:31.170Z,1.00
2022-09-28T15:18:17.470Z,99.90
2022-09-28T15:20:56.479Z,1.00
2022-09-28T15:23:35.236Z,99.90
2022-09-28T15:26:04.279Z,1.00
2022-09-28T15:28:36.397Z,1.00
2022-09-28T15:31:06.338Z,1.00
2022-09-28T15:33:54.863Z,99.90
2022-09-28T15:36:27.951Z,1.00
2022-09-28T15:39:00.249Z,1.00
2022-09-28T15:41:31.265Z,1.00
2022-09-28T15:44:23.549Z,99.90
2022-09-28T15:46:57.148Z,1.00
2022-09-28T15:49:28.107Z,1.00
2022-09-28T15:51:57.768Z,1.00
2022-09-28T15:54:38.937Z,1.00
2022-09-28T15:57:30.683Z,1.00
2022-09-28T16:00:03.436Z,1.00
2022-09-28T16:02:40.104Z,1.00
2022-09-28T16:05:38.163Z,1.00
2022-09-28T16:08:21.405Z,1.00
2022-09-28T16:11:05.860Z,1.00
2022-09-28T16:13:35.323Z,1.00
2022-09-28T16:16:17.722Z,1.00
2022-09-28T16:18:49.795Z,1.00
2022-09-28T16:21:40.420Z,1.00
2022-09-28T16:24:24.244Z,1.00
2022-09-28T16:27:00.587Z,1.00
2022-09-28T16:29:41.892Z,1.00
2022-09-28T16:32:41.909Z,1.00
2022-09-28T16:35:30.142Z,99.90
2022-09-28T16:38:17.431Z,1.00
2022-09-28T16:40:55.570Z,99.90
2022-09-28T16:43:30.382Z,99.90
2022-09-28T16:46:11.169Z,99.90
2022-09-28T16:48:58.933Z,99.90
2022-09-28T16:51:29.903Z,1.00
2022-09-28T16:54:33.286Z,1.00
2022-09-28T16:57:07.208Z,1.00
2022-09-28T16:59:39.628Z,1.00
2022-09-28T17:02:42.141Z,1.00
2022-09-28T17:05:08.116Z,1.00
2022-09-28T17:07:42.705Z,1.00
2022-09-28T17:10:19.427Z,1.00
2022-09-28T17:13:09.186Z,1.00
2022-09-28T17:15:42.261Z,1.00
2022-09-28T17:18:18.661Z,99.90
2022-09-28T17:20:56.631Z,99.90
2022-09-28T17:23:26.385Z,99.90
2022-09-28T17:26:04.254Z,99.90
2022-09-28T17:28:40.232Z,99.90
2022-09-28T17:31:18.460Z,99.90
2022-09-28T17:33:53.195Z,99.90
2022-09-28T17:36:28.740Z,99.90
2022-09-28T17:39:00.502Z,99.90
2022-09-28T17:41:32.283Z,99.90
2022-09-28T17:44:03.266Z,99.90
2022-09-28T17:46:34.175Z,99.90
2022-09-28T17:49:08.565Z,99.90
2022-09-28T17:51:39.803Z,99.90
2022-09-28T17:54:13.166Z,99.90
2022-09-28T17:56:43.723Z,99.90
2022-09-28T17:59:27.365Z,1.00
2022-09-28T18:02:02.035Z,99.90
2022-09-28T18:04:50.782Z,96.70
2022-09-28T18:07:22.209Z,99.90
2022-09-28T18:09:56.820Z,1.00
2022-09-28T18:12:26.064Z,1.00
2022-09-28T18:14:56.235Z,1.00
2022-09-28T18:17:24.718Z,8.90
2022-09-28T18:19:53.189Z,30.30
2022-09-28T18:22:21.880Z,99.90
2022-09-28T18:24:50.744Z,99.90
2022-09-28T18:27:19.746Z,99.90
2022-09-28T18:29:48.346Z,99.90
2022-09-28T18:32:18.536Z,99.90
2022-09-28T18:34:49.503Z,99.90
2022-09-28T18:37:17.963Z,99.90
2022-09-28T18:39:47.692Z,99.90
2022-09-28T18:42:16.232Z,99.90
2022-09-28T18:44:44.777Z,99.90
2022-09-28T18:47:15.251Z,99.90
2022-09-28T18:49:46.840Z,99.90
2022-09-28T18:52:15.404Z,99.90
2022-09-28T18:54:44.119Z,99.90
2022-09-28T18:57:15.354Z,99.90
2022-09-28T18:59:43.727Z,99.90
2022-09-28T19:02:19.591Z,99.90
2022-09-28T19:04:49.332Z,99.90
2022-09-28T19:07:18.036Z,99.90
2022-09-28T19:09:48.164Z,99.90
2022-09-28T19:12:16.521Z,99.90
2022-09-28T19:14:44.870Z,99.90
2022-09-28T19:17:17.060Z,99.90
2022-09-28T19:19:45.554Z,99.90
2022-09-28T19:22:16.625Z,99.90
2022-09-28T19:24:50.985Z,99.90
2022-09-28T19:27:19.492Z,99.90
2022-09-28T19:29:47.786Z,99.90
2022-09-28T19:32:16.136Z,99.90
2022-09-28T19:34:45.603Z,99.90
2022-09-28T19:37:15.452Z,99.90
2022-09-28T19:39:43.721Z,99.90
2022-09-28T19:42:11.841Z,99.90
2022-09-28T19:44:40.389Z,99.90
2022-09-28T19:47:11.661Z,99.90
2022-09-28T19:49:41.571Z,99.90
2022-09-28T19:52:15.853Z,99.90
2022-09-28T19:54:55.786Z,99.90
2022-09-28T19:57:26.121Z,99.90
2022-09-28T19:59:59.276Z,99.90
2022-09-28T20:02:33.961Z,99.90
2022-09-28T20:05:02.323Z,99.90
2022-09-28T20:07:33.042Z,99.90
2022-09-28T20:10:02.682Z,99.90
2022-09-28T20:12:30.875Z,99.90
2022-09-28T20:14:59.301Z,99.90
2022-09-28T20:17:27.690Z,99.90
2022-09-28T20:19:55.850Z,99.90
2022-09-28T20:22:24.016Z,99.90
2022-09-28T20:24:52.205Z,99.90
2022-09-28T20:27:25.592Z,99.90
2022-09-28T20:29:54.666Z,99.90
2022-09-28T20:32:22.761Z,99.90
2022-09-28T20:34:50.916Z,99.90
2022-09-28T20:37:19.389Z,99.90
2022-09-28T20:39:47.706Z,99.90
2022-09-28T20:42:15.848Z,99.90
2022-09-28T20:44:45.674Z,99.90
2022-09-28T20:47:15.300Z,99.90
2022-09-28T20:49:47.251Z,99.90
2022-09-28T20:52:18.744Z,99.90
2022-09-28T20:54:47.430Z,99.90
2022-09-28T20:57:18.685Z,99.90
2022-09-28T20:59:53.655Z,99.90
2022-09-28T21:02:23.095Z,99.90
2022-09-28T21:04:51.418Z,99.90
2022-09-28T21:07:19.821Z,99.90
2022-09-28T21:09:48.432Z,99.90
2022-09-28T21:12:17.284Z,99.90
2022-09-28T21:14:45.614Z,99.90
2022-09-28T21:17:15.518Z,99.90
2022-09-28T21:19:44.630Z,99.90
2022-09-28T21:22:13.163Z,99.90
2022-09-28T21:24:41.492Z,99.90
2022-09-28T21:27:09.726Z,99.90
2022-09-28T21:29:38.050Z,99.90
2022-09-28T21:32:06.503Z,99.90
2022-09-28T21:34:36.975Z,99.90
2022-09-28T21:37:05.221Z,99.90
2022-09-28T21:39:33.781Z,99.90
2022-09-28T21:42:02.050Z,99.90
2022-09-28T21:44:30.335Z,99.90
2022-09-28T21:46:58.854Z,99.90
2022-09-28T21:49:27.096Z,99.90
2022-09-28T21:51:56.815Z,99.90
2022-09-28T21:54:25.174Z,99.90
2022-09-28T21:56:53.504Z,99.90
2022-09-28T21:59:21.797Z,99.90
2022-09-28T22:01:52.534Z,99.90
2022-09-28T22:04:21.085Z,99.90
2022-09-28T22:06:49.373Z,99.90
2022-09-28T22:09:19.390Z,99.90
